createdAt,value
2022-09-12T00:01:07.860Z,964.99
2022-09-12T00:06:09.474Z,965.02
2022-09-12T00:11:11.033Z,965.02
2022-09-12T00:16:12.797Z,965.03
2022-09-12T00:21:14.117Z,965.01
2022-09-12T00:26:15.707Z,964.93
2022-09-12T00:31:17.925Z,964.86
2022-09-12T00:36:19.525Z,964.76
2022-09-12T00:41:21.517Z,964.79
2022-09-12T00:46:23.035Z,964.73
2022-09-12T00:51:25.060Z,964.7
2022-09-12T00:56:27.079Z,964.71
2022-09-12T01:01:32.301Z,964.64
2022-09-12T01:06:30.470Z,964.55
2022-09-12T01:11:31.947Z,964.55
2022-09-12T01:16:33.664Z,964.51
2022-09-12T01:21:35.737Z,964.47
2022-09-12T01:26:37.508Z,964.46
2022-09-12T01:31:39.043Z,964.43
2022-09-12T01:36:40.709Z,964.41
2022-09-12T01:41:42.070Z,964.37
2022-09-12T01:46:44.175Z,964.42
2022-09-12T01:51:46.326Z,964.33
2022-09-12T01:56:47.663Z,964.28
2022-09-12T02:01:49.161Z,964.28
2022-09-12T02:06:50.663Z,964.26
2022-09-12T02:11:52.718Z,964.17
2022-09-12T02:16:54.159Z,964.1
2022-09-12T02:21:55.662Z,964.05
2022-09-12T02:26:57.305Z,964.04
2022-09-12T02:31:59.270Z,964.05
2022-09-12T02:37:00.668Z,964.02
2022-09-12T02:42:02.672Z,963.93
2022-09-12T02:47:04.539Z,963.94
2022-09-12T02:52:05.674Z,963.94
2022-09-12T02:57:06.947Z,963.98
2022-09-12T03:02:08.732Z,963.93
2022-09-12T03:07:10.779Z,963.94
2022-09-12T03:12:12.819Z,963.96
2022-09-12T03:17:14.276Z,963.93
2022-09-12T03:22:16.389Z,963.87
2022-09-12T03:27:27.619Z,963.85
2022-09-12T03:32:18.887Z,963.86
2022-09-12T03:37:20.469Z,963.89
2022-09-12T03:42:22.219Z,963.91
2022-09-12T03:47:23.953Z,963.91
2022-09-12T03:52:25.273Z,963.94
2022-09-12T03:57:26.613Z,963.93
2022-09-12T04:02:28.376Z,963.94
2022-09-12T04:07:30.308Z,963.96
2022-09-12T04:12:31.804Z,963.96
2022-09-12T04:17:33.038Z,963.95
2022-09-12T04:22:34.919Z,963.96
2022-09-12T04:47:44.196Z,963.94
2022-09-12T04:57:47.323Z,963.97
2022-09-12T05:07:51.263Z,964.04
2022-09-12T05:12:52.576Z,964.03
2022-09-12T05:32:59.691Z,964.15
2022-09-12T05:38:01.248Z,964.11
2022-09-12T05:48:05.032Z,964.23
2022-09-12T05:53:06.415Z,964.26
2022-09-12T05:58:08.625Z,964.27
2022-09-12T06:03:10.051Z,964.23
2022-09-12T06:08:11.213Z,964.22
2022-09-12T06:13:13.180Z,964.29
2022-09-12T06:18:14.966Z,964.24
2022-09-12T06:23:16.434Z,964.18
2022-09-12T06:28:17.635Z,964.17
2022-09-12T06:33:19.151Z,964.21
2022-09-12T06:38:20.926Z,964.14
2022-09-12T06:43:22.344Z,964.09
2022-09-12T06:48:24.240Z,964.15
2022-09-12T06:53:26.403Z,964.14
2022-09-12T06:58:28.398Z,964.14
2022-09-12T07:03:29.745Z,964.13
2022-09-12T07:08:31.895Z,964.15
2022-09-12T07:13:33.359Z,964.17
2022-09-12T07:18:35.112Z,964.1
2022-09-12T07:23:36.434Z,964.14
2022-09-12T07:28:37.953Z,964.1
2022-09-12T07:33:39.288Z,964.12
2022-09-12T07:38:41.270Z,964.15
2022-09-12T07:43:42.985Z,964.16
2022-09-12T07:48:44.348Z,964.18
2022-09-12T07:53:45.675Z,964.17
2022-09-12T07:58:46.998Z,964.2
2022-09-12T08:03:48.972Z,964.24
2022-09-12T08:08:51.100Z,964.26
2022-09-12T08:13:55.534Z,964.26
2022-09-12T08:18:54.731Z,964.26
2022-09-12T08:23:56.522Z,964.23
2022-09-12T08:28:58.452Z,964.19
2022-09-12T08:34:00.367Z,964.2
2022-09-12T08:39:02.052Z,964.14
2022-09-12T08:44:03.964Z,964.21
2022-09-12T08:49:05.228Z,964.2
2022-09-12T08:54:07.358Z,964.22
2022-09-12T08:59:09.020Z,964.23
2022-09-12T09:04:10.988Z,964.16
2022-09-12T09:09:12.864Z,964.1
2022-09-12T09:14:14.301Z,964.1
2022-09-12T09:19:15.635Z,964.1
2022-09-12T09:24:17.234Z,964.05
2022-09-12T09:29:18.843Z,964
2022-09-12T09:34:21.035Z,963.93
2022-09-12T09:39:22.459Z,963.95
2022-09-12T09:44:24.642Z,963.92
2022-09-12T09:49:26.354Z,963.91
2022-09-12T09:54:27.605Z,963.85
2022-09-12T09:59:29.533Z,963.93
2022-09-12T10:04:30.752Z,963.8
2022-09-12T10:09:32.184Z,963.77
2022-09-12T10:14:33.685Z,963.8
2022-09-12T10:19:35.715Z,963.73
2022-09-12T10:24:37.429Z,963.75
2022-09-12T10:29:39.564Z,963.74
2022-09-12T10:34:41.524Z,963.62
2022-09-12T10:39:43.433Z,963.64
2022-09-12T10:44:44.862Z,963.67
2022-09-12T10:49:46.652Z,963.67
2022-09-12T10:54:47.695Z,963.66
2022-09-12T10:59:49.116Z,963.66
2022-09-12T11:04:50.623Z,963.61
2022-09-12T11:09:51.849Z,963.59
2022-09-12T11:14:53.848Z,963.51
2022-09-12T11:19:55.659Z,963.43
2022-09-12T11:24:57.117Z,963.43
2022-09-12T11:29:58.502Z,963.4
2022-09-12T11:34:59.712Z,963.38
2022-09-12T11:40:01.856Z,963.37
2022-09-12T11:45:03.456Z,963.35
2022-09-12T11:50:05.667Z,963.39
2022-09-12T11:55:06.841Z,963.27
2022-09-12T12:00:08.875Z,963.26
2022-09-12T12:05:10.924Z,963.27
2022-09-12T12:10:12.323Z,963.19
2022-09-12T12:15:14.348Z,963.14
2022-09-12T12:20:15.756Z,963.13
2022-09-12T12:25:21.379Z,963.12
2022-09-12T12:30:19.429Z,963.07
2022-09-12T12:35:21.134Z,963.04
2022-09-12T12:40:22.772Z,962.99
2022-09-12T12:45:24.409Z,963.01
2022-09-12T12:50:25.685Z,962.93
2022-09-12T12:55:27.247Z,962.88
2022-09-12T13:00:28.577Z,962.79
2022-09-12T13:05:30.780Z,962.78
2022-09-12T13:10:32.746Z,962.71
2022-09-12T13:15:34.743Z,962.65
2022-09-12T13:20:36.023Z,962.66
2022-09-12T13:25:37.246Z,962.65
2022-09-12T13:35:41.118Z,962.48
2022-09-12T13:40:42.779Z,962.47
2022-09-12T13:50:46.682Z,962.44
2022-09-12T13:55:48.373Z,962.35
2022-09-12T14:00:50.496Z,962.29
2022-09-12T14:05:51.955Z,962.24
2022-09-12T14:10:53.484Z,962.21
2022-09-12T14:20:56.236Z,962.16
2022-09-12T14:25:57.668Z,962.08
2022-09-12T14:30:59.090Z,962.08
2022-09-12T14:36:00.272Z,962.03
2022-09-12T14:41:01.484Z,962.03
2022-09-12T14:46:02.868Z,961.95
2022-09-12T14:51:04.025Z,961.91
2022-09-12T14:56:05.451Z,961.91
2022-09-12T15:01:06.772Z,961.93
2022-09-12T15:06:08.613Z,961.93
2022-09-12T15:11:09.891Z,961.97
2022-09-12T15:16:11.997Z,961.88
2022-09-12T15:21:13.770Z,961.85
2022-09-12T15:26:15.116Z,961.87
2022-09-12T15:31:16.673Z,961.75
2022-09-12T15:36:17.733Z,961.8
2022-09-12T15:41:19.868Z,961.71
2022-09-12T15:46:21.929Z,961.68
2022-09-12T15:51:23.896Z,961.7
2022-09-12T15:56:26.018Z,961.7
2022-09-12T16:01:27.472Z,961.63
2022-09-12T16:06:31.514Z,961.65
2022-09-12T16:11:37.533Z,961.63
2022-09-12T16:16:39.217Z,961.65
2022-09-12T16:21:40.979Z,961.6
2022-09-12T16:26:42.254Z,961.56
2022-09-12T16:31:43.860Z,961.47
2022-09-12T16:36:45.838Z,961.45
2022-09-12T16:41:47.503Z,961.38
2022-09-12T16:46:49.056Z,961.34
2022-09-12T16:51:51.100Z,961.29
2022-09-12T16:56:52.490Z,961.26
2022-09-12T17:01:54.525Z,961.28
2022-09-12T17:06:56.313Z,961.31
2022-09-12T17:11:58.462Z,961.33
2022-09-12T17:17:00.065Z,961.46
2022-09-12T17:22:01.934Z,961.43
2022-09-12T17:27:03.339Z,961.46
2022-09-12T17:32:04.847Z,961.44
2022-09-12T17:37:06.529Z,961.46
2022-09-12T17:42:08.668Z,961.45
2022-09-12T17:47:10.818Z,961.48
2022-09-12T17:52:13.036Z,961.45
2022-09-12T17:57:14.860Z,961.49
2022-09-12T18:02:16.412Z,961.56
2022-09-12T18:07:18.452Z,961.48
2022-09-12T18:12:20.397Z,961.53
2022-09-12T18:17:21.830Z,961.54
2022-09-12T18:22:23.328Z,961.51
2022-09-12T18:27:24.650Z,961.5
2022-09-12T18:32:26.209Z,961.5
2022-09-12T18:37:27.758Z,961.51
2022-09-12T18:42:38.253Z,961.5
2022-09-12T18:47:31.019Z,961.42
2022-09-12T18:52:32.651Z,961.45
2022-09-12T18:57:34.755Z,961.46
2022-09-12T19:02:36.828Z,961.47
2022-09-12T19:07:38.207Z,961.45
2022-09-12T19:17:40.886Z,961.44
2022-09-12T19:22:42.936Z,961.51
2022-09-12T19:27:44.999Z,961.52
2022-09-12T19:32:46.903Z,961.59
2022-09-12T19:37:48.627Z,961.61
2022-09-12T19:42:50.374Z,961.58
2022-09-12T19:47:51.972Z,961.56
2022-09-12T19:52:54.069Z,961.59
2022-09-12T19:57:56.044Z,961.62
2022-09-12T20:02:57.505Z,961.69
2022-09-12T20:08:04.064Z,961.69
2022-09-12T20:13:00.559Z,961.7
2022-09-12T20:18:02.082Z,961.65
2022-09-12T20:23:04.245Z,961.66
2022-09-12T20:28:05.595Z,961.59
2022-09-12T20:33:07.432Z,961.51
2022-09-12T20:38:09.524Z,961.46
2022-09-12T20:43:11.042Z,961.47
2022-09-12T20:48:12.982Z,961.41
2022-09-12T20:53:15.025Z,961.4
2022-09-12T20:58:16.330Z,961.43
2022-09-12T21:03:17.817Z,961.41
2022-09-12T21:08:19.326Z,961.35
2022-09-12T21:13:20.575Z,961.37
2022-09-12T21:18:22.440Z,961.4
2022-09-12T21:23:24.434Z,961.35
2022-09-12T21:28:26.256Z,961.37
2022-09-12T21:33:28.041Z,961.38
2022-09-12T21:38:29.410Z,961.35
2022-09-12T21:43:31.109Z,961.33
2022-09-12T21:48:32.370Z,961.35
2022-09-12T21:53:33.685Z,961.41
2022-09-12T21:58:35.402Z,961.41
2022-09-12T22:13:39.953Z,961.49
2022-09-12T22:18:41.968Z,961.48
2022-09-12T22:23:43.471Z,961.43
2022-09-12T22:28:45.296Z,961.39
2022-09-12T22:33:47.312Z,961.32
2022-09-12T22:38:49.107Z,961.25
2022-09-12T22:43:50.858Z,961.17
2022-09-12T22:48:52.177Z,961.13
2022-09-12T22:53:53.355Z,961.08
2022-09-12T22:58:55.534Z,961.04
2022-09-12T23:03:57.160Z,961.08
2022-09-12T23:08:58.938Z,961.07
2022-09-12T23:14:00.544Z,961.08
2022-09-12T23:19:02.208Z,961.04
2022-09-12T23:24:04.390Z,961.02
2022-09-12T23:29:06.458Z,961
2022-09-12T23:34:07.972Z,961.03
2022-09-12T23:39:09.550Z,960.94
2022-09-12T23:44:11.018Z,960.98
2022-09-12T23:49:12.987Z,960.95
2022-09-12T23:54:14.721Z,960.73
2022-09-12T23:59:16.247Z,960.64
